sensor_id;sensor_type;location;lat;lon;timestamp;P1;durP1;ratioP1;P2;durP2;ratioP2
73023;SDS011;61199;47.526;8.538;2023-05-07T00:02:16;9.20;;;2.60;;
73023;SDS011;61199;47.526;8.538;2023-05-07T00:04:42;6.03;;;2.30;;
73023;SDS011;61199;47.526;8.538;2023-05-07T00:07:08;3.20;;;2.40;;
73023;SDS011;61199;47.526;8.538;2023-05-07T00:09:35;6.33;;;2.10;;
73023;SDS011;61199;47.526;8.538;2023-05-07T00:12:02;4.70;;;2.00;;
73023;SDS011;61199;47.526;8.538;2023-05-07T00:14:28;4.93;;;2.30;;
73023;SDS011;61199;47.526;8.538;2023-05-07T00:16:55;7.33;;;2.27;;
73023;SDS011;61199;47.526;8.538;2023-05-07T00:19:21;9.63;;;2.50;;
73023;SDS011;61199;47.526;8.538;2023-05-07T00:21:48;4.20;;;2.57;;
73023;SDS011;61199;47.526;8.538;2023-05-07T00:24:14;4.70;;;3.03;;
73023;SDS011;61199;47.526;8.538;2023-05-07T00:26:41;5.43;;;2.83;;
73023;SDS011;61199;47.526;8.538;2023-05-07T00:29:07;16.23;;;3.30;;
73023;SDS011;61199;47.526;8.538;2023-05-07T00:31:33;4.93;;;2.70;;
73023;SDS011;61199;47.526;8.538;2023-05-07T00:34:00;5.80;;;2.80;;
73023;SDS011;61199;47.526;8.538;2023-05-07T00:36:26;10.30;;;3.37;;
73023;SDS011;61199;47.526;8.538;2023-05-07T00:38:53;4.93;;;2.80;;
73023;SDS011;61199;47.526;8.538;2023-05-07T00:41:20;5.17;;;2.70;;
73023;SDS011;61199;47.526;8.538;2023-05-07T00:43:47;5.73;;;3.13;;
73023;SDS011;61199;47.526;8.538;2023-05-07T00:46:13;5.80;;;2.77;;
73023;SDS011;61199;47.526;8.538;2023-05-07T00:48:41;6.70;;;2.90;;
73023;SDS011;61199;47.526;8.538;2023-05-07T00:51:09;7.03;;;3.23;;
73023;SDS011;61199;47.526;8.538;2023-05-07T00:53:37;5.60;;;3.23;;
73023;SDS011;61199;47.526;8.538;2023-05-07T00:56:04;10.73;;;3.97;;
73023;SDS011;61199;47.526;8.538;2023-05-07T00:58:32;4.43;;;3.10;;
73023;SDS011;61199;47.526;8.538;2023-05-07T01:00:59;8.23;;;3.53;;
73023;SDS011;61199;47.526;8.538;2023-05-07T01:03:26;7.07;;;3.33;;
73023;SDS011;61199;47.526;8.538;2023-05-07T01:05:53;9.20;;;3.30;;
73023;SDS011;61199;47.526;8.538;2023-05-07T01:08:21;6.10;;;3.23;;
73023;SDS011;61199;47.526;8.538;2023-05-07T01:10:48;7.23;;;2.73;;
73023;SDS011;61199;47.526;8.538;2023-05-07T01:13:14;8.07;;;2.97;;
73023;SDS011;61199;47.526;8.538;2023-05-07T01:15:42;4.90;;;2.77;;
73023;SDS011;61199;47.526;8.538;2023-05-07T01:18:09;6.17;;;2.90;;
73023;SDS011;61199;47.526;8.538;2023-05-07T01:20:36;3.97;;;2.30;;
73023;SDS011;61199;47.526;8.538;2023-05-07T01:23:03;12.77;;;2.70;;
73023;SDS011;61199;47.526;8.538;2023-05-07T01:25:29;12.80;;;2.70;;
73023;SDS011;61199;47.526;8.538;2023-05-07T01:27:57;24.93;;;4.20;;
73023;SDS011;61199;47.526;8.538;2023-05-07T01:30:25;6.20;;;2.47;;
73023;SDS011;61199;47.526;8.538;2023-05-07T01:33:00;4.47;;;2.30;;
73023;SDS011;61199;47.526;8.538;2023-05-07T01:35:46;7.67;;;2.70;;
73023;SDS011;61199;47.526;8.538;2023-05-07T01:38:15;7.47;;;2.40;;
73023;SDS011;61199;47.526;8.538;2023-05-07T01:40:42;6.63;;;2.63;;
73023;SDS011;61199;47.526;8.538;2023-05-07T01:43:09;5.17;;;2.47;;
73023;SDS011;61199;47.526;8.538;2023-05-07T01:45:36;9.80;;;2.53;;
73023;SDS011;61199;47.526;8.538;2023-05-07T01:48:03;6.70;;;3.10;;
73023;SDS011;61199;47.526;8.538;2023-05-07T01:50:30;5.20;;;3.20;;
73023;SDS011;61199;47.526;8.538;2023-05-07T01:52:58;4.73;;;3.20;;
73023;SDS011;61199;47.526;8.538;2023-05-07T01:55:24;4.13;;;2.10;;
73023;SDS011;61199;47.526;8.538;2023-05-07T01:57:51;9.13;;;2.50;;
73023;SDS011;61199;47.526;8.538;2023-05-07T02:00:17;5.57;;;2.20;;
73023;SDS011;61199;47.526;8.538;2023-05-07T02:02:45;8.83;;;2.00;;
73023;SDS011;61199;47.526;8.538;2023-05-07T02:05:11;4.00;;;2.40;;
73023;SDS011;61199;47.526;8.538;2023-05-07T02:07:37;4.70;;;2.40;;
73023;SDS011;61199;47.526;8.538;2023-05-07T02:10:04;3.53;;;2.30;;
73023;SDS011;61199;47.526;8.538;2023-05-07T02:12:31;3.40;;;2.30;;
73023;SDS011;61199;47.526;8.538;2023-05-07T02:14:57;4.20;;;2.30;;
73023;SDS011;61199;47.526;8.538;2023-05-07T02:17:23;3.17;;;2.23;;
73023;SDS011;61199;47.526;8.538;2023-05-07T02:19:50;6.33;;;2.60;;
73023;SDS011;61199;47.526;8.538;2023-05-07T02:22:16;4.30;;;1.80;;
73023;SDS011;61199;47.526;8.538;2023-05-07T02:24:43;4.03;;;1.73;;
73023;SDS011;61199;47.526;8.538;2023-05-07T02:27:09;4.90;;;1.70;;
73023;SDS011;61199;47.526;8.538;2023-05-07T02:29:35;2.70;;;1.90;;
73023;SDS011;61199;47.526;8.538;2023-05-07T02:32:02;2.97;;;2.00;;
73023;SDS011;61199;47.526;8.538;2023-05-07T02:34:28;3.00;;;2.10;;
73023;SDS011;61199;47.526;8.538;2023-05-07T02:36:55;3.23;;;2.20;;
73023;SDS011;61199;47.526;8.538;2023-05-07T02:39:21;3.33;;;2.30;;
73023;SDS011;61199;47.526;8.538;2023-05-07T02:41:48;10.23;;;2.53;;
73023;SDS011;61199;47.526;8.538;2023-05-07T02:44:14;5.00;;;2.00;;
73023;SDS011;61199;47.526;8.538;2023-05-07T02:46:40;4.57;;;1.70;;
73023;SDS011;61199;47.526;8.538;2023-05-07T02:49:07;2.20;;;1.90;;
73023;SDS011;61199;47.526;8.538;2023-05-07T02:51:33;2.83;;;1.83;;
73023;SDS011;61199;47.526;8.538;2023-05-07T02:53:59;3.00;;;2.03;;
73023;SDS011;61199;47.526;8.538;2023-05-07T02:56:26;3.27;;;1.87;;
73023;SDS011;61199;47.526;8.538;2023-05-07T02:58:53;4.30;;;2.10;;
73023;SDS011;61199;47.526;8.538;2023-05-07T03:01:19;4.00;;;1.70;;
73023;SDS011;61199;47.526;8.538;2023-05-07T03:03:46;7.10;;;2.10;;
73023;SDS011;61199;47.526;8.538;2023-05-07T03:06:13;6.20;;;2.20;;
73023;SDS011;61199;47.526;8.538;2023-05-07T03:08:39;3.00;;;1.60;;
73023;SDS011;61199;47.526;8.538;2023-05-07T03:11:06;6.87;;;2.23;;
73023;SDS011;61199;47.526;8.538;2023-05-07T03:13:33;3.77;;;2.17;;
73023;SDS011;61199;47.526;8.538;2023-05-07T03:15:59;3.23;;;1.70;;
73023;SDS011;61199;47.526;8.538;2023-05-07T03:18:25;3.67;;;2.07;;
73023;SDS011;61199;47.526;8.538;2023-05-07T03:20:52;11.53;;;2.43;;
73023;SDS011;61199;47.526;8.538;2023-05-07T03:23:18;4.27;;;1.80;;
73023;SDS011;61199;47.526;8.538;2023-05-07T03:25:45;7.17;;;2.90;;
73023;SDS011;61199;47.526;8.538;2023-05-07T03:28:11;8.60;;;2.10;;
73023;SDS011;61199;47.526;8.538;2023-05-07T03:30:37;4.67;;;2.57;;
73023;SDS011;61199;47.526;8.538;2023-05-07T03:33:04;8.73;;;3.27;;
73023;SDS011;61199;47.526;8.538;2023-05-07T03:35:30;5.83;;;2.53;;
73023;SDS011;61199;47.526;8.538;2023-05-07T03:37:56;4.33;;;2.50;;
73023;SDS011;61199;47.526;8.538;2023-05-07T03:40:23;6.47;;;2.50;;
73023;SDS011;61199;47.526;8.538;2023-05-07T03:42:49;8.57;;;2.67;;
73023;SDS011;61199;47.526;8.538;2023-05-07T03:45:15;5.80;;;2.60;;
73023;SDS011;61199;47.526;8.538;2023-05-07T03:47:42;3.23;;;2.20;;
73023;SDS011;61199;47.526;8.538;2023-05-07T03:50:09;4.30;;;2.23;;
73023;SDS011;61199;47.526;8.538;2023-05-07T03:52:37;3.40;;;1.87;;
73023;SDS011;61199;47.526;8.538;2023-05-07T03:55:03;7.53;;;2.40;;
73023;SDS011;61199;47.526;8.538;2023-05-07T03:57:30;5.10;;;2.30;;
73023;SDS011;61199;47.526;8.538;2023-05-07T03:59:56;4.40;;;2.37;;
73023;SDS011;61199;47.526;8.538;2023-05-07T04:02:22;4.57;;;2.60;;
73023;SDS011;61199;47.526;8.538;2023-05-07T04:04:49;4.23;;;2.80;;
73023;SDS011;61199;47.526;8.538;2023-05-07T04:07:16;9.30;;;2.70;;
73023;SDS011;61199;47.526;8.538;2023-05-07T04:09:42;4.80;;;2.70;;
73023;SDS011;61199;47.526;8.538;2023-05-07T04:12:08;6.23;;;2.53;;
73023;SDS011;61199;47.526;8.538;2023-05-07T04:14:35;4.10;;;2.63;;
73023;SDS011;61199;47.526;8.538;2023-05-07T04:17:01;4.57;;;2.53;;
73023;SDS011;61199;47.526;8.538;2023-05-07T04:19:28;6.47;;;2.70;;
73023;SDS011;61199;47.526;8.538;2023-05-07T04:21:55;5.73;;;2.47;;
73023;SDS011;61199;47.526;8.538;2023-05-07T04:24:21;12.67;;;3.10;;
73023;SDS011;61199;47.526;8.538;2023-05-07T04:26:48;5.43;;;2.50;;
73023;SDS011;61199;47.526;8.538;2023-05-07T04:29:14;10.40;;;3.03;;
73023;SDS011;61199;47.526;8.538;2023-05-07T04:31:40;4.40;;;2.40;;
73023;SDS011;61199;47.526;8.538;2023-05-07T04:34:07;5.23;;;2.70;;
73023;SDS011;61199;47.526;8.538;2023-05-07T04:36:33;3.97;;;2.50;;
73023;SDS011;61199;47.526;8.538;2023-05-07T04:39:00;5.23;;;2.70;;
73023;SDS011;61199;47.526;8.538;2023-05-07T04:41:26;2.90;;;2.77;;
73023;SDS011;61199;47.526;8.538;2023-05-07T04:43:53;4.97;;;3.10;;
73023;SDS011;61199;47.526;8.538;2023-05-07T04:46:19;5.17;;;2.97;;
73023;SDS011;61199;47.526;8.538;2023-05-07T04:48:46;5.77;;;2.80;;
73023;SDS011;61199;47.526;8.538;2023-05-07T04:51:12;6.67;;;3.07;;
73023;SDS011;61199;47.526;8.538;2023-05-07T04:53:39;5.70;;;2.80;;
73023;SDS011;61199;47.526;8.538;2023-05-07T04:56:05;4.33;;;3.20;;
73023;SDS011;61199;47.526;8.538;2023-05-07T04:58:32;4.00;;;3.07;;
73023;SDS011;61199;47.526;8.538;2023-05-07T05:00:58;7.77;;;3.90;;
73023;SDS011;61199;47.526;8.538;2023-05-07T05:03:26;5.47;;;2.93;;
73023;SDS011;61199;47.526;8.538;2023-05-07T05:05:52;4.83;;;2.83;;
73023;SDS011;61199;47.526;8.538;2023-05-07T05:08:19;5.27;;;3.50;;
73023;SDS011;61199;47.526;8.538;2023-05-07T05:10:45;12.17;;;3.40;;
73023;SDS011;61199;47.526;8.538;2023-05-07T05:13:12;12.67;;;5.37;;
73023;SDS011;61199;47.526;8.538;2023-05-07T05:15:39;6.23;;;3.13;;
73023;SDS011;61199;47.526;8.538;2023-05-07T05:18:05;6.30;;;3.50;;
73023;SDS011;61199;47.526;8.538;2023-05-07T05:20:32;5.90;;;3.20;;
73023;SDS011;61199;47.526;8.538;2023-05-07T05:22:58;5.30;;;3.90;;
73023;SDS011;61199;47.526;8.538;2023-05-07T05:25:25;6.53;;;3.37;;
73023;SDS011;61199;47.526;8.538;2023-05-07T05:27:51;7.40;;;3.13;;
73023;SDS011;61199;47.526;8.538;2023-05-07T05:30:17;16.03;;;4.00;;
73023;SDS011;61199;47.526;8.538;2023-05-07T05:32:44;9.70;;;4.00;;
73023;SDS011;61199;47.526;8.538;2023-05-07T05:35:10;7.00;;;3.83;;
73023;SDS011;61199;47.526;8.538;2023-05-07T05:37:37;9.63;;;3.80;;
73023;SDS011;61199;47.526;8.538;2023-05-07T05:40:03;6.90;;;3.67;;
73023;SDS011;61199;47.526;8.538;2023-05-07T05:42:30;8.80;;;3.70;;
73023;SDS011;61199;47.526;8.538;2023-05-07T05:44:56;5.33;;;3.77;;
73023;SDS011;61199;47.526;8.538;2023-05-07T05:47:22;6.13;;;3.93;;
73023;SDS011;61199;47.526;8.538;2023-05-07T05:49:49;7.70;;;4.17;;
73023;SDS011;61199;47.526;8.538;2023-05-07T05:52:15;5.83;;;4.23;;
73023;SDS011;61199;47.526;8.538;2023-05-07T05:54:43;5.40;;;3.50;;
73023;SDS011;61199;47.526;8.538;2023-05-07T05:57:09;8.43;;;3.63;;
73023;SDS011;61199;47.526;8.538;2023-05-07T05:59:36;7.47;;;4.03;;
73023;SDS011;61199;47.526;8.538;2023-05-07T06:02:02;10.23;;;4.57;;
73023;SDS011;61199;47.526;8.538;2023-05-07T06:04:29;7.13;;;3.77;;
73023;SDS011;61199;47.526;8.538;2023-05-07T06:06:55;4.00;;;3.57;;
73023;SDS011;61199;47.526;8.538;2023-05-07T06:09:22;6.20;;;3.73;;
73023;SDS011;61199;47.526;8.538;2023-05-07T06:11:49;6.77;;;4.27;;
73023;SDS011;61199;47.526;8.538;2023-05-07T06:14:15;7.53;;;3.77;;
73023;SDS011;61199;47.526;8.538;2023-05-07T06:16:42;5.00;;;4.00;;
73023;SDS011;61199;47.526;8.538;2023-05-07T06:19:08;5.10;;;3.80;;
73023;SDS011;61199;47.526;8.538;2023-05-07T06:21:34;6.30;;;3.90;;
73023;SDS011;61199;47.526;8.538;2023-05-07T06:24:01;4.60;;;3.90;;
73023;SDS011;61199;47.526;8.538;2023-05-07T06:26:27;8.20;;;4.27;;
73023;SDS011;61199;47.526;8.538;2023-05-07T06:28:53;7.87;;;4.30;;
73023;SDS011;61199;47.526;8.538;2023-05-07T06:31:20;13.30;;;4.80;;
73023;SDS011;61199;47.526;8.538;2023-05-07T06:33:47;6.47;;;4.07;;
73023;SDS011;61199;47.526;8.538;2023-05-07T06:36:14;7.07;;;4.80;;
73023;SDS011;61199;47.526;8.538;2023-05-07T06:38:41;8.53;;;5.07;;
73023;SDS011;61199;47.526;8.538;2023-05-07T06:41:07;8.60;;;4.70;;
73023;SDS011;61199;47.526;8.538;2023-05-07T06:43:33;5.57;;;4.47;;
73023;SDS011;61199;47.526;8.538;2023-05-07T06:46:00;6.50;;;4.63;;
73023;SDS011;61199;47.526;8.538;2023-05-07T06:48:26;8.30;;;4.83;;
73023;SDS011;61199;47.526;8.538;2023-05-07T06:50:52;11.77;;;4.83;;
73023;SDS011;61199;47.526;8.538;2023-05-07T06:53:21;8.87;;;4.73;;
73023;SDS011;61199;47.526;8.538;2023-05-07T06:55:47;7.10;;;4.43;;
73023;SDS011;61199;47.526;8.538;2023-05-07T06:58:13;7.30;;;4.47;;
73023;SDS011;61199;47.526;8.538;2023-05-07T07:00:40;7.10;;;4.27;;
73023;SDS011;61199;47.526;8.538;2023-05-07T07:03:06;6.97;;;5.30;;
73023;SDS011;61199;47.526;8.538;2023-05-07T07:05:33;9.43;;;5.00;;
73023;SDS011;61199;47.526;8.538;2023-05-07T07:07:59;8.43;;;4.23;;
73023;SDS011;61199;47.526;8.538;2023-05-07T07:10:26;7.13;;;4.27;;
73023;SDS011;61199;47.526;8.538;2023-05-07T07:12:52;9.33;;;5.80;;
73023;SDS011;61199;47.526;8.538;2023-05-07T07:15:19;6.33;;;4.50;;
73023;SDS011;61199;47.526;8.538;2023-05-07T07:17:47;6.63;;;3.87;;
73023;SDS011;61199;47.526;8.538;2023-05-07T07:20:14;10.50;;;4.67;;
73023;SDS011;61199;47.526;8.538;2023-05-07T07:22:41;10.80;;;4.60;;
73023;SDS011;61199;47.526;8.538;2023-05-07T07:25:07;7.80;;;4.50;;
73023;SDS011;61199;47.526;8.538;2023-05-07T07:27:36;8.20;;;5.10;;
73023;SDS011;61199;47.526;8.538;2023-05-07T07:30:03;8.53;;;4.83;;
73023;SDS011;61199;47.526;8.538;2023-05-07T07:32:30;6.70;;;4.40;;
73023;SDS011;61199;47.526;8.538;2023-05-07T07:34:58;6.90;;;5.20;;
73023;SDS011;61199;47.526;8.538;2023-05-07T07:37:24;9.03;;;4.50;;
73023;SDS011;61199;47.526;8.538;2023-05-07T07:39:51;7.60;;;4.53;;
73023;SDS011;61199;47.526;8.538;2023-05-07T07:42:17;7.83;;;4.30;;
73023;SDS011;61199;47.526;8.538;2023-05-07T07:44:44;6.97;;;4.17;;
73023;SDS011;61199;47.526;8.538;2023-05-07T07:47:10;29.47;;;4.17;;
73023;SDS011;61199;47.526;8.538;2023-05-07T07:49:37;11.67;;;4.60;;
73023;SDS011;61199;47.526;8.538;2023-05-07T07:52:03;6.50;;;4.40;;
73023;SDS011;61199;47.526;8.538;2023-05-07T07:54:30;7.27;;;4.40;;
73023;SDS011;61199;47.526;8.538;2023-05-07T07:56:56;7.40;;;3.93;;
73023;SDS011;61199;47.526;8.538;2023-05-07T07:59:23;7.50;;;4.30;;
73023;SDS011;61199;47.526;8.538;2023-05-07T08:01:49;8.17;;;4.77;;
73023;SDS011;61199;47.526;8.538;2023-05-07T08:04:20;10.93;;;4.70;;
73023;SDS011;61199;47.526;8.538;2023-05-07T08:06:46;9.07;;;4.47;;
73023;SDS011;61199;47.526;8.538;2023-05-07T08:09:13;11.43;;;4.67;;
73023;SDS011;61199;47.526;8.538;2023-05-07T08:11:39;8.37;;;4.23;;
73023;SDS011;61199;47.526;8.538;2023-05-07T08:14:06;8.50;;;4.23;;
73023;SDS011;61199;47.526;8.538;2023-05-07T08:16:32;6.03;;;3.97;;
73023;SDS011;61199;47.526;8.538;2023-05-07T08:18:59;6.73;;;4.23;;
73023;SDS011;61199;47.526;8.538;2023-05-07T08:21:25;7.20;;;5.27;;
73023;SDS011;61199;47.526;8.538;2023-05-07T08:23:52;7.57;;;5.27;;
73023;SDS011;61199;47.526;8.538;2023-05-07T08:26:18;13.33;;;5.87;;
73023;SDS011;61199;47.526;8.538;2023-05-07T08:28:45;6.30;;;5.00;;
73023;SDS011;61199;47.526;8.538;2023-05-07T08:31:11;9.80;;;4.90;;
73023;SDS011;61199;47.526;8.538;2023-05-07T08:33:37;7.23;;;4.50;;
73023;SDS011;61199;47.526;8.538;2023-05-07T08:36:04;8.10;;;4.80;;
73023;SDS011;61199;47.526;8.538;2023-05-07T08:38:31;9.93;;;4.20;;
73023;SDS011;61199;47.526;8.538;2023-05-07T08:40:57;8.07;;;4.00;;
73023;SDS011;61199;47.526;8.538;2023-05-07T08:43:26;6.63;;;4.47;;
73023;SDS011;61199;47.526;8.538;2023-05-07T08:45:53;9.30;;;4.50;;
73023;SDS011;61199;47.526;8.538;2023-05-07T08:48:21;9.50;;;3.93;;
73023;SDS011;61199;47.526;8.538;2023-05-07T08:50:51;6.67;;;4.27;;
73023;SDS011;61199;47.526;8.538;2023-05-07T08:53:18;7.97;;;4.43;;
73023;SDS011;61199;47.526;8.538;2023-05-07T08:55:46;17.10;;;4.80;;
73023;SDS011;61199;47.526;8.538;2023-05-07T08:58:13;8.73;;;4.27;;
73023;SDS011;61199;47.526;8.538;2023-05-07T09:00:40;10.77;;;3.90;;
73023;SDS011;61199;47.526;8.538;2023-05-07T09:03:07;11.13;;;3.67;;
73023;SDS011;61199;47.526;8.538;2023-05-07T09:05:34;8.67;;;4.57;;
73023;SDS011;61199;47.526;8.538;2023-05-07T09:08:04;11.10;;;4.83;;
73023;SDS011;61199;47.526;8.538;2023-05-07T09:10:33;9.93;;;4.60;;
73023;SDS011;61199;47.526;8.538;2023-05-07T09:13:00;6.30;;;4.30;;
73023;SDS011;61199;47.526;8.538;2023-05-07T09:15:26;6.73;;;4.93;;
73023;SDS011;61199;47.526;8.538;2023-05-07T09:17:54;6.77;;;5.17;;
73023;SDS011;61199;47.526;8.538;2023-05-07T09:20:27;6.60;;;3.67;;
73023;SDS011;61199;47.526;8.538;2023-05-07T09:22:56;11.00;;;5.17;;
73023;SDS011;61199;47.526;8.538;2023-05-07T09:25:29;4.80;;;3.60;;
73023;SDS011;61199;47.526;8.538;2023-05-07T09:27:57;8.17;;;4.17;;
73023;SDS011;61199;47.526;8.538;2023-05-07T09:30:27;9.00;;;3.73;;
73023;SDS011;61199;47.526;8.538;2023-05-07T09:33:01;7.50;;;4.30;;
73023;SDS011;61199;47.526;8.538;2023-05-07T09:35:29;7.83;;;5.20;;
73023;SDS011;61199;47.526;8.538;2023-05-07T09:37:57;6.33;;;4.17;;
73023;SDS011;61199;47.526;8.538;2023-05-07T09:40:29;8.67;;;4.60;;
73023;SDS011;61199;47.526;8.538;2023-05-07T09:43:07;9.77;;;4.60;;
73023;SDS011;61199;47.526;8.538;2023-05-07T09:45:34;8.30;;;5.17;;
73023;SDS011;61199;47.526;8.538;2023-05-07T09:48:02;7.20;;;4.50;;
73023;SDS011;61199;47.526;8.538;2023-05-07T09:50:32;9.70;;;5.07;;
73023;SDS011;61199;47.526;8.538;2023-05-07T09:53:03;13.40;;;6.00;;
73023;SDS011;61199;47.526;8.538;2023-05-07T09:55:30;6.50;;;4.70;;
73023;SDS011;61199;47.526;8.538;2023-05-07T09:57:56;9.03;;;5.33;;
73023;SDS011;61199;47.526;8.538;2023-05-07T10:00:23;7.50;;;4.70;;
73023;SDS011;61199;47.526;8.538;2023-05-07T10:02:52;12.23;;;3.90;;
73023;SDS011;61199;47.526;8.538;2023-05-07T10:05:19;9.67;;;4.23;;
73023;SDS011;61199;47.526;8.538;2023-05-07T10:07:46;6.63;;;3.90;;
73023;SDS011;61199;47.526;8.538;2023-05-07T10:10:14;8.10;;;4.00;;
73023;SDS011;61199;47.526;8.538;2023-05-07T10:13:01;7.23;;;4.30;;
73023;SDS011;61199;47.526;8.538;2023-05-07T10:15:31;12.17;;;5.37;;
73023;SDS011;61199;47.526;8.538;2023-05-07T10:17:58;7.90;;;5.03;;
73023;SDS011;61199;47.526;8.538;2023-05-07T10:20:25;8.97;;;5.10;;
73023;SDS011;61199;47.526;8.538;2023-05-07T10:22:53;12.20;;;4.70;;
73023;SDS011;61199;47.526;8.538;2023-05-07T10:25:26;6.60;;;4.03;;
73023;SDS011;61199;47.526;8.538;2023-05-07T10:27:57;7.00;;;4.47;;
73023;SDS011;61199;47.526;8.538;2023-05-07T10:30:34;7.30;;;4.50;;
73023;SDS011;61199;47.526;8.538;2023-05-07T10:33:13;8.90;;;4.73;;
73023;SDS011;61199;47.526;8.538;2023-05-07T10:35:43;6.23;;;4.50;;
73023;SDS011;61199;47.526;8.538;2023-05-07T10:38:12;10.77;;;5.27;;
73023;SDS011;61199;47.526;8.538;2023-05-07T10:40:39;16.93;;;6.03;;
73023;SDS011;61199;47.526;8.538;2023-05-07T10:43:06;10.23;;;4.30;;
73023;SDS011;61199;47.526;8.538;2023-05-07T10:45:36;7.30;;;4.67;;
73023;SDS011;61199;47.526;8.538;2023-05-07T10:51:17;7.97;;;4.40;;
73023;SDS011;61199;47.526;8.538;2023-05-07T10:53:47;10.23;;;5.10;;
73023;SDS011;61199;47.526;8.538;2023-05-07T10:58:43;8.90;;;5.10;;
73023;SDS011;61199;47.526;8.538;2023-05-07T11:01:10;6.93;;;4.03;;
73023;SDS011;61199;47.526;8.538;2023-05-07T11:04:12;9.23;;;4.50;;
73023;SDS011;61199;47.526;8.538;2023-05-07T11:06:41;8.53;;;4.80;;
73023;SDS011;61199;47.526;8.538;2023-05-07T11:09:07;11.27;;;4.13;;
73023;SDS011;61199;47.526;8.538;2023-05-07T11:11:49;5.60;;;4.10;;
73023;SDS011;61199;47.526;8.538;2023-05-07T11:14:44;11.43;;;4.80;;
73023;SDS011;61199;47.526;8.538;2023-05-07T11:17:11;12.30;;;4.80;;
73023;SDS011;61199;47.526;8.538;2023-05-07T11:19:48;16.30;;;4.20;;
73023;SDS011;61199;47.526;8.538;2023-05-07T11:25:00;7.87;;;3.90;;
73023;SDS011;61199;47.526;8.538;2023-05-07T11:27:27;12.30;;;4.10;;
73023;SDS011;61199;47.526;8.538;2023-05-07T11:29:53;11.20;;;4.37;;
73023;SDS011;61199;47.526;8.538;2023-05-07T11:32:23;9.37;;;4.50;;
73023;SDS011;61199;47.526;8.538;2023-05-07T11:34:56;11.70;;;4.80;;
73023;SDS011;61199;47.526;8.538;2023-05-07T11:37:24;7.93;;;4.40;;
73023;SDS011;61199;47.526;8.538;2023-05-07T11:40:05;7.13;;;5.00;;
73023;SDS011;61199;47.526;8.538;2023-05-07T11:42:34;14.63;;;4.57;;
73023;SDS011;61199;47.526;8.538;2023-05-07T11:45:03;6.97;;;4.57;;
73023;SDS011;61199;47.526;8.538;2023-05-07T11:47:32;7.33;;;4.20;;
73023;SDS011;61199;47.526;8.538;2023-05-07T11:50:06;7.13;;;4.13;;
73023;SDS011;61199;47.526;8.538;2023-05-07T11:52:34;5.40;;;4.20;;
73023;SDS011;61199;47.526;8.538;2023-05-07T11:55:01;5.47;;;4.10;;
73023;SDS011;61199;47.526;8.538;2023-05-07T11:57:29;9.30;;;4.60;;
73023;SDS011;61199;47.526;8.538;2023-05-07T11:59:56;7.30;;;4.00;;
73023;SDS011;61199;47.526;8.538;2023-05-07T12:02:23;6.20;;;4.20;;
73023;SDS011;61199;47.526;8.538;2023-05-07T12:04:51;6.60;;;4.57;;
73023;SDS011;61199;47.526;8.538;2023-05-07T12:07:18;5.20;;;3.60;;
73023;SDS011;61199;47.526;8.538;2023-05-07T12:09:45;11.87;;;3.93;;
73023;SDS011;61199;47.526;8.538;2023-05-07T12:12:12;9.53;;;4.17;;
73023;SDS011;61199;47.526;8.538;2023-05-07T12:14:43;8.57;;;3.80;;
73023;SDS011;61199;47.526;8.538;2023-05-07T12:17:11;6.97;;;4.23;;
73023;SDS011;61199;47.526;8.538;2023-05-07T12:19:39;8.83;;;3.70;;
73023;SDS011;61199;47.526;8.538;2023-05-07T12:22:09;7.00;;;3.63;;
73023;SDS011;61199;47.526;8.538;2023-05-07T12:24:48;4.70;;;3.63;;
73023;SDS011;61199;47.526;8.538;2023-05-07T12:27:16;6.60;;;4.50;;
73023;SDS011;61199;47.526;8.538;2023-05-07T12:29:44;7.47;;;4.17;;
73023;SDS011;61199;47.526;8.538;2023-05-07T12:32:14;11.47;;;4.53;;
73023;SDS011;61199;47.526;8.538;2023-05-07T12:34:42;6.63;;;3.80;;
73023;SDS011;61199;47.526;8.538;2023-05-07T12:37:10;8.03;;;4.20;;
73023;SDS011;61199;47.526;8.538;2023-05-07T12:39:44;11.13;;;4.30;;
73023;SDS011;61199;47.526;8.538;2023-05-07T12:42:16;11.03;;;3.83;;
73023;SDS011;61199;47.526;8.538;2023-05-07T12:44:49;5.27;;;3.43;;
73023;SDS011;61199;47.526;8.538;2023-05-07T12:47:16;9.30;;;4.03;;
73023;SDS011;61199;47.526;8.538;2023-05-07T12:49:43;10.20;;;5.07;;
73023;SDS011;61199;47.526;8.538;2023-05-07T12:52:11;6.70;;;5.07;;
73023;SDS011;61199;47.526;8.538;2023-05-07T12:54:39;6.53;;;4.47;;
73023;SDS011;61199;47.526;8.538;2023-05-07T12:57:06;6.50;;;5.33;;
73023;SDS011;61199;47.526;8.538;2023-05-07T12:59:35;7.17;;;4.43;;
73023;SDS011;61199;47.526;8.538;2023-05-07T13:02:03;8.30;;;4.13;;
73023;SDS011;61199;47.526;8.538;2023-05-07T13:04:30;5.40;;;3.40;;
73023;SDS011;61199;47.526;8.538;2023-05-07T13:06:57;6.77;;;3.80;;
73023;SDS011;61199;47.526;8.538;2023-05-07T13:09:24;7.63;;;4.30;;
73023;SDS011;61199;47.526;8.538;2023-05-07T13:11:50;6.40;;;3.37;;
73023;SDS011;61199;47.526;8.538;2023-05-07T13:14:17;5.00;;;3.37;;
73023;SDS011;61199;47.526;8.538;2023-05-07T13:16:43;5.23;;;3.70;;
73023;SDS011;61199;47.526;8.538;2023-05-07T13:19:10;7.60;;;3.40;;
73023;SDS011;61199;47.526;8.538;2023-05-07T13:21:37;10.60;;;3.97;;
73023;SDS011;61199;47.526;8.538;2023-05-07T13:24:03;5.77;;;3.80;;
73023;SDS011;61199;47.526;8.538;2023-05-07T13:26:30;9.30;;;3.80;;
73023;SDS011;61199;47.526;8.538;2023-05-07T13:28:57;7.77;;;3.60;;
73023;SDS011;61199;47.526;8.538;2023-05-07T13:31:24;6.30;;;3.57;;
73023;SDS011;61199;47.526;8.538;2023-05-07T13:33:50;7.77;;;3.40;;
73023;SDS011;61199;47.526;8.538;2023-05-07T13:36:18;4.60;;;3.80;;
73023;SDS011;61199;47.526;8.538;2023-05-07T13:38:44;6.97;;;4.37;;
73023;SDS011;61199;47.526;8.538;2023-05-07T13:41:12;7.37;;;3.43;;
73023;SDS011;61199;47.526;8.538;2023-05-07T13:43:39;4.37;;;3.10;;
73023;SDS011;61199;47.526;8.538;2023-05-07T13:46:05;5.30;;;3.30;;
73023;SDS011;61199;47.526;8.538;2023-05-07T13:48:32;5.37;;;3.70;;
73023;SDS011;61199;47.526;8.538;2023-05-07T13:50:58;9.53;;;3.00;;
73023;SDS011;61199;47.526;8.538;2023-05-07T13:53:24;6.97;;;3.73;;
73023;SDS011;61199;47.526;8.538;2023-05-07T13:55:51;6.00;;;3.10;;
73023;SDS011;61199;47.526;8.538;2023-05-07T13:58:17;5.33;;;3.27;;
73023;SDS011;61199;47.526;8.538;2023-05-07T14:00:44;4.63;;;3.50;;
73023;SDS011;61199;47.526;8.538;2023-05-07T14:03:10;5.40;;;4.00;;
73023;SDS011;61199;47.526;8.538;2023-05-07T14:05:36;5.20;;;2.63;;
73023;SDS011;61199;47.526;8.538;2023-05-07T14:08:03;4.80;;;3.20;;
73023;SDS011;61199;47.526;8.538;2023-05-07T14:10:30;4.50;;;2.90;;
73023;SDS011;61199;47.526;8.538;2023-05-07T14:12:57;6.80;;;3.60;;
73023;SDS011;61199;47.526;8.538;2023-05-07T14:15:24;8.13;;;2.80;;
73023;SDS011;61199;47.526;8.538;2023-05-07T14:17:50;4.00;;;3.10;;
73023;SDS011;61199;47.526;8.538;2023-05-07T14:20:17;6.70;;;3.10;;
73023;SDS011;61199;47.526;8.538;2023-05-07T14:22:43;3.80;;;3.23;;
73023;SDS011;61199;47.526;8.538;2023-05-07T14:25:09;4.37;;;3.10;;
73023;SDS011;61199;47.526;8.538;2023-05-07T14:27:36;4.47;;;3.00;;
73023;SDS011;61199;47.526;8.538;2023-05-07T14:30:03;4.37;;;2.40;;
73023;SDS011;61199;47.526;8.538;2023-05-07T14:32:29;8.60;;;2.67;;
73023;SDS011;61199;47.526;8.538;2023-05-07T14:34:56;2.90;;;2.20;;
73023;SDS011;61199;47.526;8.538;2023-05-07T14:37:22;3.33;;;2.30;;
73023;SDS011;61199;47.526;8.538;2023-05-07T14:39:50;2.90;;;2.20;;
73023;SDS011;61199;47.526;8.538;2023-05-07T14:42:16;3.83;;;2.50;;
73023;SDS011;61199;47.526;8.538;2023-05-07T14:44:43;2.13;;;1.83;;
73023;SDS011;61199;47.526;8.538;2023-05-07T14:47:11;2.93;;;2.27;;
73023;SDS011;61199;47.526;8.538;2023-05-07T14:49:37;4.47;;;3.30;;
73023;SDS011;61199;47.526;8.538;2023-05-07T14:52:04;3.00;;;2.27;;
73023;SDS011;61199;47.526;8.538;2023-05-07T14:54:33;6.90;;;3.17;;
73023;SDS011;61199;47.526;8.538;2023-05-07T14:57:04;6.97;;;3.10;;